Time;durP1;ratioP1;P1;durP2;ratioP2;P2;SDS_P1;SDS_P2;PMS_P1;PMS_P2;Temp;Humidity;BMP_temperature;BMP_pressure;BME280_temperature;BME280_humidity;BME280_pressure;Samples;Min_cycle;Max_cycle;Signal;HPM_P1;HPM_P2
2023/04/22 00:00:22;;;;;;;4.90;3.77;;;;;;;;;;4649661;28;10001089;-72
2023/04/22 00:02:48;;;;;;;5.85;3.97;;;;;;;;;;4994662;28;20061;-72
2023/04/22 00:05:14;;;;;;;4.03;3.60;;;;;;;;;;4995960;28;20038;-72
2023/04/22 00:07:41;;;;;;;3.83;3.42;;;;;;;;;;4993685;28;20030;-72
2023/04/22 00:10:08;;;;;;;5.13;3.97;;;;;;;;;;4997799;28;20394;-72
2023/04/22 00:12:34;;;;;;;6.60;4.50;;;;;;;;;;4999073;28;20478;-72
2023/04/22 00:15:00;;;;;;;6.22;4.05;;;;;;;;;;4991731;28;20743;-73
2023/04/22 00:17:26;;;;;;;5.60;4.28;;;;;;;;;;4996158;28;20027;-72
2023/04/22 00:19:53;;;;;;;4.15;3.75;;;;;;;;;;4997619;28;20386;-71
2023/04/22 00:22:19;;;;;;;6.32;5.00;;;;;;;;;;4994434;28;20137;-72
2023/04/22 00:24:45;;;;;;;7.50;5.03;;;;;;;;;;4998283;28;20042;-73
2023/04/22 00:27:11;;;;;;;5.75;4.35;;;;;;;;;;4993544;28;20030;-72
2023/04/22 00:29:38;;;;;;;6.18;4.30;;;;;;;;;;5000207;28;20026;-73
2023/04/22 00:32:04;;;;;;;6.05;4.65;;;;;;;;;;4996099;28;20036;-72
2023/04/22 00:34:30;;;;;;;5.70;4.72;;;;;;;;;;4996582;28;20085;-72
2023/04/22 00:36:56;;;;;;;6.38;4.50;;;;;;;;;;4995081;28;20026;-71
2023/04/22 00:39:22;;;;;;;6.30;4.65;;;;;;;;;;4991789;28;20026;-71
2023/04/22 00:41:49;;;;;;;5.05;4.38;;;;;;;;;;4997645;28;20045;-71
2023/04/22 00:44:14;;;;;;;6.20;4.85;;;11.10;99.90;;;;;;4999117;28;20556;-71
2023/04/22 00:46:40;;;;;;;8.95;4.43;;;10.90;99.90;;;;;;4993063;28;20056;-71
2023/04/22 00:49:06;;;;;;;5.15;4.50;;;10.80;99.90;;;;;;5002172;28;20026;-71
2023/04/22 00:51:32;;;;;;;4.85;4.30;;;10.80;99.90;;;;;;4994872;28;20434;-71
2023/04/22 00:54:00;;;;;;;5.20;4.38;;;10.80;99.90;;;;;;4996370;28;20030;-71
2023/04/22 00:56:27;;;;;;;5.00;3.90;;;10.80;99.90;;;;;;4997396;28;20034;-71
2023/04/22 00:58:55;;;;;;;6.25;4.38;;;10.80;99.90;;;;;;4997571;28;20037;-71
2023/04/22 01:01:22;;;;;;;5.18;4.25;;;10.80;99.90;;;;;;5002008;28;20114;-71
2023/04/22 01:03:49;;;;;;;6.32;4.10;;;10.80;99.90;;;;;;4996358;28;20084;-71
2023/04/22 01:06:18;;;;;;;6.57;4.25;;;10.80;99.90;;;;;;4996819;28;20625;-72
2023/04/22 01:08:44;;;;;;;6.47;4.25;;;10.70;99.90;;;;;;4996376;28;20053;-72
2023/04/22 01:11:10;;;;;;;7.22;4.28;;;10.80;99.90;;;;;;4997558;28;20038;-72
2023/04/22 01:13:37;;;;;;;6.80;4.30;;;10.70;99.90;;;;;;4991317;28;20033;-72
2023/04/22 01:16:07;;;;;;;5.60;3.95;;;10.70;99.90;;;;;;4991558;28;20054;-71
2023/04/22 01:18:34;;;;;;;6.18;4.40;;;10.80;99.90;;;;;;4992262;28;20033;-72
2023/04/22 01:21:01;;;;;;;5.72;4.28;;;10.90;99.90;;;;;;4996375;28;20057;-72
2023/04/22 01:23:27;;;;;;;5.35;4.25;;;11.10;99.90;;;;;;4992840;28;20045;-71
2023/04/22 01:25:53;;;;;;;5.45;4.20;;;11.10;99.90;;;;;;4996593;28;20037;-71
2023/04/22 01:28:19;;;;;;;5.63;4.50;;;11.20;99.90;;;;;;4995839;28;20034;-72
2023/04/22 01:30:47;;;;;;;7.55;4.63;;;11.10;99.90;;;;;;4996613;28;20072;-71
2023/04/22 01:33:14;;;;;;;5.45;4.20;;;11.10;99.90;;;;;;4989993;28;20502;-73
2023/04/22 01:35:40;;;;;;;7.13;4.68;;;11.10;99.90;;;;;;4994021;28;20734;-72
2023/04/22 01:38:08;;;;;;;5.40;4.35;;;11.10;99.90;;;;;;5000916;28;20033;-71
2023/04/22 01:40:34;;;;;;;6.95;4.82;;;11.00;99.90;;;;;;4994404;28;20482;-73
2023/04/22 01:43:00;;;;;;;7.82;4.75;;;11.00;99.90;;;;;;4990123;28;20049;-72
2023/04/22 01:45:27;;;;;;;5.55;4.68;;;10.90;99.90;;;;;;4989712;28;20046;-72
2023/04/22 01:47:53;;;;;;;5.25;4.68;;;10.90;99.90;;;;;;4999705;28;20145;-72
2023/04/22 01:50:18;;;;;;;5.97;4.25;;;11.00;99.90;;;;;;4997367;28;20042;-71
2023/04/22 01:52:44;;;;;;;6.88;4.47;;;10.90;99.90;;;;;;5005057;28;20033;-72
2023/04/22 01:55:10;;;;;;;7.13;4.80;;;11.00;99.90;;;;;;5012022;28;20375;-71
2023/04/22 01:57:35;;;;;;;6.82;4.72;;;11.00;99.90;;;;;;4999574;28;20022;-73
2023/04/22 02:00:02;;;;;;;7.90;4.90;;;11.00;99.90;;;;;;5003112;28;20041;-71
2023/04/22 02:02:27;;;;;;;7.40;4.90;;;11.00;99.90;;;;;;4999509;28;20049;-71
2023/04/22 02:04:53;;;;;;;6.03;4.22;;;11.00;99.90;;;;;;5006378;28;20387;-73
2023/04/22 02:07:19;;;;;;;5.63;4.43;;;11.00;99.90;;;;;;4995068;28;20048;-71
2023/04/22 02:09:44;;;;;;;5.55;4.40;;;10.90;99.90;;;;;;5006975;28;20518;-70
2023/04/22 02:12:10;;;;;;;5.60;4.68;;;10.90;99.90;;;;;;5003675;28;20109;-70
2023/04/22 02:14:35;;;;;;;6.72;4.35;;;10.90;99.90;;;;;;4998492;28;20041;-71
2023/04/22 02:17:02;;;;;;;5.93;4.40;;;10.90;99.90;;;;;;5011482;28;20928;-71
2023/04/22 02:19:28;;;;;;;6.10;4.60;;;10.90;99.90;;;;;;5007036;28;20356;-71
2023/04/22 02:21:54;;;;;;;5.25;4.40;;;10.90;99.90;;;;;;5002488;28;20131;-74
2023/04/22 02:24:20;;;;;;;4.78;4.15;;;10.80;99.90;;;;;;4997417;28;20614;-72
2023/04/22 02:26:46;;;;;;;5.70;4.40;;;10.80;99.90;;;;;;4999898;28;20109;-71
2023/04/22 02:29:12;;;;;;;4.90;4.40;;;10.70;99.90;;;;;;5000361;28;20018;-72
2023/04/22 02:31:37;;;;;;;5.38;4.60;;;10.70;99.90;;;;;;5006758;28;20030;-72
2023/04/22 02:34:03;;;;;;;5.28;4.43;;;10.70;99.90;;;;;;4999642;28;20116;-72
2023/04/22 02:36:31;;;;;;;5.68;4.47;;;10.70;99.90;;;;;;5000499;28;20069;-72
2023/04/22 02:38:57;;;;;;;5.00;4.50;;;10.70;99.90;;;;;;5003149;28;20033;-72
2023/04/22 02:41:23;;;;;;;5.35;4.60;;;10.70;99.90;;;;;;4996609;28;20030;-71
2023/04/22 02:43:48;;;;;;;5.53;4.40;;;10.60;99.90;;;;;;5006115;28;20037;-71
2023/04/22 02:46:17;;;;;;;5.15;4.65;;;10.60;99.90;;;;;;4999735;28;20050;-72
2023/04/22 02:48:43;;;;;;;5.63;4.40;;;10.60;99.90;;;;;;5001511;28;20053;-72
2023/04/22 02:51:08;;;;;;;5.88;4.40;;;10.60;99.90;;;;;;5006805;28;20490;-72
2023/04/22 02:53:34;;;;;;;7.40;4.60;;;10.70;99.90;;;;;;4999977;28;20387;-71
2023/04/22 02:55:59;;;;;;;4.90;4.40;;;10.70;99.90;;;;;;5000051;28;20412;-72
2023/04/22 02:58:25;;;;;;;5.40;4.45;;;10.70;99.90;;;;;;4996741;28;20018;-71
2023/04/22 03:00:51;;;;;;;5.60;4.40;;;10.70;99.90;;;;;;5003526;28;20103;-72
2023/04/22 03:03:17;;;;;;;6.03;4.50;;;10.70;99.90;;;;;;5004510;28;20038;-72
2023/04/22 03:05:42;;;;;;;7.35;4.97;;;10.70;99.90;;;;;;5001601;28;20038;-71
2023/04/22 03:08:08;;;;;;;6.38;4.57;;;10.70;99.90;;;;;;4998294;28;20034;-73
2023/04/22 03:10:34;;;;;;;5.15;4.50;;;10.70;99.90;;;;;;5001350;28;20137;-71
2023/04/22 03:12:59;;;;;;;5.18;4.30;;;10.70;99.90;;;;;;4994836;28;20081;-71
2023/04/22 03:15:25;;;;;;;5.88;4.55;;;10.70;99.90;;;;;;5002807;28;20026;-71
2023/04/22 03:17:51;;;;;;;4.90;4.30;;;10.70;99.90;;;;;;4999587;28;20080;-71
2023/04/22 03:20:16;;;;;;;6.88;4.70;;;10.70;99.90;;;;;;4997830;28;20053;-71
2023/04/22 03:22:42;;;;;;;4.85;4.10;;;10.70;99.90;;;;;;5007708;28;20044;-71
2023/04/22 03:25:10;;;;;;;6.32;4.65;;;10.70;99.90;;;;;;4998412;28;20042;-71
2023/04/22 03:27:35;;;;;;;5.60;4.38;;;10.70;99.90;;;;;;4999018;28;20086;-71
2023/04/22 03:30:01;;;;;;;6.25;5.13;;;10.70;99.90;;;;;;5003462;28;20116;-71
2023/04/22 03:32:27;;;;;;;6.07;4.72;;;10.70;99.90;;;;;;5008136;28;20490;-71
2023/04/22 03:34:53;;;;;;;7.03;4.38;;;10.60;99.90;;;;;;4994394;28;20037;-71
2023/04/22 03:37:18;;;;;;;5.35;4.80;;;10.60;99.90;;;;;;4994919;28;20346;-71
2023/04/22 03:39:44;;;;;;;5.43;4.53;;;10.70;99.90;;;;;;5002972;28;20498;-71
2023/04/22 03:42:11;;;;;;;5.93;4.82;;;10.60;99.90;;;;;;5000356;28;20034;-71
2023/04/22 03:44:36;;;;;;;7.30;4.78;;;10.60;99.90;;;;;;5001902;28;20121;-71
2023/04/22 03:47:02;;;;;;;7.13;5.40;;;10.60;99.90;;;;;;4993993;28;20116;-72
2023/04/22 03:49:27;;;;;;;5.68;4.85;;;10.50;99.90;;;;;;4992291;28;20105;-71
2023/04/22 03:51:53;;;;;;;7.75;4.88;;;10.60;99.90;;;;;;5000175;28;20501;-71
2023/04/22 03:54:19;;;;;;;8.73;4.72;;;10.50;99.90;;;;;;5004987;28;20022;-70
2023/04/22 03:56:45;;;;;;;6.00;4.65;;;10.50;99.90;;;;;;4993499;28;20690;-72
2023/04/22 03:59:10;;;;;;;7.32;4.93;;;10.60;99.90;;;;;;5002923;28;20105;-71
2023/04/22 04:01:36;;;;;;;6.40;4.93;;;10.60;99.90;;;;;;4994594;28;20026;-72
2023/04/22 04:04:01;;;;;;;5.65;4.68;;;10.60;99.90;;;;;;4994998;28;20034;-71
2023/04/22 04:06:27;;;;;;;8.10;4.65;;;10.50;99.90;;;;;;4995445;28;20159;-71
2023/04/22 04:08:53;;;;;;;6.65;4.85;;;10.50;99.90;;;;;;4998723;28;20128;-72
2023/04/22 04:11:18;;;;;;;6.53;4.43;;;10.50;99.90;;;;;;4995862;28;20133;-72
2023/04/22 04:13:44;;;;;;;6.00;4.45;;;10.50;99.90;;;;;;4998505;28;20037;-72
2023/04/22 04:16:09;;;;;;;5.80;5.10;;;10.50;99.90;;;;;;5005516;28;20030;-71
2023/04/22 04:18:35;;;;;;;6.40;4.78;;;10.40;99.90;;;;;;4994436;28;20053;-71
2023/04/22 04:21:01;;;;;;;5.38;4.60;;;10.50;99.90;;;;;;4990187;28;20095;-71
2023/04/22 04:23:26;;;;;;;5.75;4.80;;;10.40;99.90;;;;;;4994531;28;20391;-71
2023/04/22 04:25:53;;;;;;;6.38;4.85;;;10.40;99.90;;;;;;4993610;28;20067;-72
2023/04/22 04:28:18;;;;;;;5.97;4.63;;;10.40;99.90;;;;;;4994268;28;20049;-71
2023/04/22 04:30:44;;;;;;;5.43;4.78;;;10.40;99.90;;;;;;4997326;28;20030;-71
2023/04/22 04:33:10;;;;;;;5.10;4.60;;;10.40;99.90;;;;;;5000208;28;20077;-71
2023/04/22 04:35:36;;;;;;;4.90;4.40;;;10.40;99.90;;;;;;5005645;28;20080;-71
2023/04/22 04:38:04;;;;;;;8.57;4.65;;;10.40;99.90;;;;;;5000503;28;20033;-71
2023/04/22 04:40:30;;;;;;;8.23;4.55;;;10.50;99.90;;;;;;4989986;28;20251;-71
2023/04/22 04:42:56;;;;;;;6.00;4.75;;;10.40;99.90;;;;;;4989900;28;20487;-71
2023/04/22 04:45:23;;;;;;;8.73;4.93;;;10.50;99.90;;;;;;5000802;28;20049;-71
2023/04/22 04:47:49;;;;;;;6.78;4.47;;;10.50;99.90;;;;;;5002017;28;20066;-72
2023/04/22 04:50:15;;;;;;;6.35;4.97;;;10.50;99.90;;;;;;4995174;28;20247;-71
2023/04/22 04:52:41;;;;;;;7.07;4.85;;;10.50;99.90;;;;;;4993721;28;20067;-72
2023/04/22 04:55:07;;;;;;;5.82;4.43;;;10.60;99.90;;;;;;4997765;28;20068;-72
2023/04/22 04:57:33;;;;;;;6.75;4.88;;;10.70;99.90;;;;;;4996610;28;20046;-72
2023/04/22 04:59:59;;;;;;;9.00;5.30;;;10.70;99.90;;;;;;5005024;28;20120;-71
2023/04/22 05:02:24;;;;;;;7.57;4.80;;;10.80;99.90;;;;;;4999430;28;20037;-73
2023/04/22 05:04:50;;;;;;;7.18;4.90;;;10.90;99.90;;;;;;4996754;28;20018;-72
2023/04/22 05:07:15;;;;;;;6.90;4.97;;;11.00;99.90;;;;;;4999357;28;20034;-71
2023/04/22 05:09:41;;;;;;;6.25;4.80;;;11.10;99.90;;;;;;4994077;28;20126;-72
2023/04/22 05:12:06;;;;;;;7.10;5.10;;;11.10;99.90;;;;;;4995813;28;20030;-71
2023/04/22 05:14:32;;;;;;;6.70;5.07;;;11.20;99.90;;;;;;4993075;28;20077;-71
2023/04/22 05:16:58;;;;;;;8.90;5.15;;;11.30;99.90;;;;;;4992387;28;20474;-71
2023/04/22 05:19:23;;;;;;;7.72;5.03;;;11.30;99.90;;;;;;4991314;28;20034;-72
2023/04/22 05:21:49;;;;;;;10.00;5.57;;;11.40;99.90;;;;;;5000168;28;20514;-71
2023/04/22 05:24:15;;;;;;;6.20;5.20;;;11.50;99.90;;;;;;4989322;28;20026;-72
2023/04/22 05:26:40;;;;;;;5.28;4.78;;;11.50;99.90;;;;;;4999988;28;20017;-73
2023/04/22 05:29:06;;;;;;;6.15;5.03;;;11.60;99.90;;;;;;4998892;28;20018;-70
2023/04/22 05:31:32;;;;;;;6.25;5.03;;;11.60;99.90;;;;;;5005410;28;20026;-73
2023/04/22 05:33:58;;;;;;;6.97;4.95;;;11.70;99.90;;;;;;5007033;28;20117;-72
2023/04/22 05:36:24;;;;;;;6.78;5.15;;;11.70;99.90;;;;;;5003670;28;20444;-73
2023/04/22 05:38:49;;;;;;;7.47;4.55;;;11.70;99.90;;;;;;4999067;28;20097;-72
2023/04/22 05:41:15;;;;;;;6.93;5.13;;;11.90;99.90;;;;;;4999130;28;20026;-72
2023/04/22 05:43:41;;;;;;;7.05;5.32;;;11.90;99.90;;;;;;4993835;28;20549;-72
2023/04/22 05:46:06;;;;;;;6.97;4.57;;;12.00;99.90;;;;;;4990541;28;20042;-72
2023/04/22 05:48:32;;;;;;;5.68;5.07;;;12.00;99.90;;;;;;4990636;28;20103;-72
2023/04/22 05:50:57;;;;;;;8.02;4.93;;;12.10;99.90;;;;;;4997493;28;20470;-72
2023/04/22 05:53:23;;;;;;;6.95;4.72;;;12.20;99.90;;;;;;4997692;28;20037;-72
2023/04/22 05:55:49;;;;;;;5.72;4.93;;;12.20;99.90;;;;;;4989058;28;20026;-72
2023/04/22 05:58:15;;;;;;;6.55;5.30;;;12.30;99.90;;;;;;4991364;28;20121;-72
2023/04/22 06:00:40;;;;;;;7.97;5.22;;;12.40;99.90;;;;;;4993179;28;20521;-73
2023/04/22 06:03:06;;;;;;;9.38;4.97;;;12.40;99.90;;;;;;4996850;28;20038;-72
2023/04/22 06:05:32;;;;;;;9.93;5.18;;;12.50;99.90;;;;;;4993816;28;20041;-72
2023/04/22 06:07:57;;;;;;;10.75;5.18;;;12.60;99.90;;;;;;4996760;28;20030;-72
2023/04/22 06:10:23;;;;;;;8.20;4.70;;;12.70;99.90;;;;;;4994708;28;20083;-73
2023/04/22 06:12:49;;;;;;;10.38;5.40;;;12.80;99.90;;;;;;4991807;28;20046;-72
2023/04/22 06:15:14;;;;;;;7.97;5.53;;;12.90;99.90;;;;;;4995995;28;20509;-73
2023/04/22 06:17:40;;;;;;;5.30;4.45;;;13.00;99.90;;;;;;4997273;28;20158;-73
2023/04/22 06:20:06;;;;;;;6.50;4.60;;;13.20;99.90;;;;;;4991974;28;20152;-73
2023/04/22 06:22:32;;;;;;;6.40;4.82;;;13.30;99.90;;;;;;4995970;28;20262;-73
2023/04/22 06:24:57;;;;;;;6.30;4.88;;;13.40;99.90;;;;;;5000474;28;20068;-73
2023/04/22 06:27:23;;;;;;;6.18;4.72;;;13.50;99.90;;;;;;4991731;28;20522;-73
2023/04/22 06:29:48;;;;;;;5.93;4.63;;;13.60;99.90;;;;;;4990005;28;20401;-73
2023/04/22 06:32:14;;;;;;;9.93;4.97;;;13.60;99.90;;;;;;4997355;28;20040;-73
2023/04/22 06:34:39;;;;;;;6.95;4.93;;;13.70;99.90;;;;;;5004861;28;20449;-73
2023/04/22 06:37:05;;;;;;;5.75;4.75;;;13.80;99.90;;;;;;5000922;28;20097;-72
2023/04/22 06:39:31;;;;;;;5.82;4.72;;;13.80;99.90;;;;;;4991889;28;20033;-72
2023/04/22 06:41:56;;;;;;;6.82;4.68;;;13.80;99.90;;;;;;5004310;28;20430;-72
2023/04/22 06:44:24;;;;;;;9.05;5.03;;;13.90;99.90;;;;;;4998470;28;20498;-74
2023/04/22 06:46:49;;;;;;;5.93;4.65;;;13.90;99.90;;;;;;5001638;28;20068;-73
2023/04/22 06:49:15;;;;;;;6.70;4.53;;;14.00;99.90;;;;;;5004798;28;20635;-73
2023/04/22 06:51:41;;;;;;;6.53;4.97;;;14.10;99.90;;;;;;4992959;28;20089;-73
2023/04/22 06:54:06;;;;;;;5.65;4.65;;;14.20;99.90;;;;;;4999955;28;20030;-73
2023/04/22 06:56:32;;;;;;;6.13;4.68;;;14.30;99.90;;;;;;4998316;28;20061;-73
2023/04/22 06:58:57;;;;;;;8.07;5.05;;;14.50;99.90;;;;;;4997023;28;20506;-73
2023/04/22 07:01:23;;;;;;;7.68;4.95;;;14.60;99.90;;;;;;4992383;28;20036;-73
2023/04/22 07:03:48;;;;;;;6.43;5.10;;;14.70;99.90;;;;;;4995361;28;20160;-73
2023/04/22 07:06:14;;;;;;;8.70;4.75;;;14.80;99.90;;;;;;4993032;28;20050;-73
2023/04/22 07:08:40;;;;;;;7.25;4.57;;;14.90;99.90;;;;;;4996687;28;20445;-73
2023/04/22 07:11:05;;;;;;;7.50;4.70;;;15.00;99.90;;;;;;4995587;28;20109;-73
2023/04/22 07:13:32;;;;;;;9.32;5.03;;;15.20;99.90;;;;;;4999919;28;20025;-73
2023/04/22 07:15:59;;;;;;;8.00;4.97;;;15.40;99.90;;;;;;5007678;28;20029;-72
2023/04/22 07:18:25;;;;;;;5.38;4.10;;;15.50;99.90;;;;;;4997676;28;20045;-72
2023/04/22 07:20:51;;;;;;;7.25;4.72;;;15.70;99.90;;;;;;5006032;28;20356;-73
2023/04/22 07:23:17;;;;;;;7.80;4.90;;;15.90;99.90;;;;;;4996920;28;20030;-73
2023/04/22 07:25:42;;;;;;;8.35;4.53;;;16.10;99.90;;;;;;4994500;28;20168;-73
2023/04/22 07:28:09;;;;;;;7.20;4.22;;;16.20;99.90;;;;;;4998890;28;20109;-73
2023/04/22 07:30:35;;;;;;;6.43;4.40;;;16.40;99.90;;;;;;4990979;28;20140;-73
2023/04/22 07:33:01;;;;;;;5.47;4.30;;;16.50;99.90;;;;;;5000347;28;20584;-73
2023/04/22 07:35:27;;;;;;;5.43;4.15;;;16.60;99.90;;;;;;4995278;28;20034;-73
2023/04/22 07:37:53;;;;;;;6.13;4.10;;;16.70;99.90;;;;;;5002510;28;20033;-72
2023/04/22 07:40:19;;;;;;;7.57;4.47;;;16.80;99.90;;;;;;4995980;28;20038;-73
2023/04/22 07:42:45;;;;;;;5.53;4.32;;;17.00;99.90;;;;;;5004334;28;20044;-72
2023/04/22 07:45:12;;;;;;;7.20;3.80;;;17.10;99.90;;;;;;4999986;28;20056;-74
2023/04/22 07:47:37;;;;;;;6.70;4.28;;;17.20;99.90;;;;;;4999878;28;20481;-73
2023/04/22 07:50:04;;;;;;;6.05;4.00;;;17.20;99.90;;;;;;4994150;28;20324;-73
2023/04/22 07:52:29;;;;;;;6.97;4.00;;;17.30;99.90;;;;;;4990877;28;20034;-73
2023/04/22 07:54:55;;;;;;;8.32;4.53;;;17.50;99.90;;;;;;5005104;28;20033;-74
2023/04/22 07:57:21;;;;;;;7.32;4.00;;;17.60;99.90;;;;;;4998135;28;20036;-74
2023/04/22 07:59:47;;;;;;;7.38;4.00;;;;;;;;;;4997126;28;20311;-73
2023/04/22 08:02:13;;;;;;;10.55;4.00;;;;;;;;;;4997463;28;20085;-73
2023/04/22 08:04:39;;;;;;;6.22;4.07;;;18.00;99.90;;;;;;5004573;28;20030;-73
2023/04/22 08:07:05;;;;;;;7.32;4.28;;;18.00;99.90;;;;;;5008427;28;20030;-73
2023/04/22 08:09:30;;;;;;;6.30;4.15;;;18.00;99.90;;;;;;5003692;28;20026;-73
2023/04/22 08:11:56;;;;;;;6.03;4.10;;;18.00;99.90;;;;;;5009023;28;20096;-73
2023/04/22 08:14:22;;;;;;;6.38;4.07;;;18.10;99.90;;;;;;5001435;28;20023;-73
2023/04/22 08:16:50;;;;;;;9.70;4.70;;;18.20;99.90;;;;;;5001608;28;20030;-73
2023/04/22 08:19:16;;;;;;;5.20;4.10;;;18.30;99.90;;;;;;5009531;28;20030;-73
2023/04/22 08:21:41;;;;;;;4.75;3.97;;;18.50;99.90;;;;;;5005322;28;20493;-73
2023/04/22 08:24:07;;;;;;;6.80;4.07;;;18.70;99.90;;;;;;5005437;28;20048;-73
2023/04/22 08:26:33;;;;;;;6.20;3.88;;;18.90;99.90;;;;;;5004013;28;20231;-73
2023/04/22 08:28:59;;;;;;;7.78;4.10;;;19.00;99.90;;;;;;5009313;28;20030;-72
2023/04/22 08:31:25;;;;;;;7.55;3.65;;;19.00;99.90;;;;;;4999191;28;20410;-73
2023/04/22 08:33:50;;;;;;;11.52;4.63;;;19.10;99.90;;;;;;4995545;28;20030;-73
2023/04/22 08:36:16;;;;;;;42.33;9.95;;;19.10;99.90;;;;;;5007885;28;20489;-73
2023/04/22 08:38:42;;;;;;;8.35;4.25;;;19.10;99.90;;;;;;5005534;28;20022;-73
2023/04/22 08:41:08;;;;;;;6.43;3.90;;;19.00;99.90;;;;;;5003828;28;20068;-73
2023/04/22 08:43:34;;;;;;;8.55;3.80;;;19.10;99.90;;;;;;4998365;28;20399;-73
2023/04/22 08:46:01;;;;;;;7.50;4.35;;;19.10;99.90;;;;;;5002022;28;20042;-73
2023/04/22 08:48:26;;;;;;;6.35;3.72;;;19.10;99.90;;;;;;5003755;28;20493;-73
2023/04/22 08:50:52;;;;;;;6.95;3.75;;;19.20;99.90;;;;;;5000827;28;20036;-73
2023/04/22 08:53:20;;;;;;;8.48;4.45;;;19.20;99.90;;;;;;5005819;28;20040;-74
2023/04/22 08:55:47;;;;;;;7.38;3.50;;;19.30;99.90;;;;;;5003391;28;20030;-73
2023/04/22 08:58:12;;;;;;;5.60;3.33;;;19.40;99.90;;;;;;5003613;28;20029;-72
2023/04/22 09:00:41;;;;;;;9.48;4.30;;;19.40;99.90;;;;;;4997450;28;20022;-72
2023/04/22 09:03:07;;;;;;;8.30;3.63;;;19.60;99.90;;;;;;4998774;28;20042;-72
2023/04/22 09:05:35;;;;;;;4.03;3.38;;;19.70;99.90;;;;;;4994420;28;20464;-72
2023/04/22 09:08:02;;;;;;;33.20;8.00;;;19.90;99.90;;;;;;4998640;28;20036;-72
2023/04/22 09:10:29;;;;;;;16.52;5.90;;;20.00;99.90;;;;;;4999028;28;20045;-72
2023/04/22 09:12:57;;;;;;;11.43;5.70;;;20.20;99.90;;;;;;4997999;28;20442;-73
2023/04/22 09:15:23;;;;;;;8.02;4.38;;;20.30;99.90;;;;;;4995136;28;20632;-72
2023/04/22 09:17:51;;;;;;;14.65;5.68;;;20.50;99.90;;;;;;4996856;28;20053;-72
2023/04/22 09:20:18;;;;;;;5.68;3.85;;;;;;;;;;5003846;28;20083;-74
2023/04/22 09:22:46;;;;;;;8.20;4.03;;;20.70;99.90;;;;;;5005441;28;20485;-73
2023/04/22 09:25:16;;;;;;;5.07;3.55;;;20.70;99.90;;;;;;5005304;28;20501;-72
2023/04/22 09:27:42;;;;;;;9.88;4.88;;;20.80;99.90;;;;;;5001484;28;20124;-73
2023/04/22 09:30:08;;;;;;;5.50;3.38;;;20.80;99.90;;;;;;5001899;28;20058;-71
2023/04/22 09:32:34;;;;;;;4.88;3.30;;;20.80;99.90;;;;;;4997221;28;20042;-73
2023/04/22 09:35:00;;;;;;;12.20;4.55;;;20.80;99.90;;;;;;4999664;28;20033;-72
2023/04/22 09:37:26;;;;;;;9.70;4.28;;;20.80;99.90;;;;;;5002994;28;20084;-72
2023/04/22 09:39:53;;;;;;;9.50;4.15;;;;;;;;;;5003861;28;20029;-73
2023/04/22 09:42:19;;;;;;;12.18;4.05;;;;;;;;;;5004377;28;20037;-72
2023/04/22 09:44:47;;;;;;;10.23;4.03;;;;;;;;;;4992817;28;20034;-73
2023/04/22 09:47:13;;;;;;;7.95;3.33;;;;;;;;;;4996597;28;20072;-72
2023/04/22 09:49:45;;;;;;;6.70;3.65;;;;;;;;;;4998106;28;20035;-72
2023/04/22 09:52:10;;;;;;;22.52;7.05;;;;;;;;;;4993681;28;20061;-72
2023/04/22 09:54:37;;;;;;;11.25;3.40;;;;;;;;;;4992336;28;20173;-73
2023/04/22 09:57:03;;;;;;;6.32;3.00;;;;;;;;;;4987570;28;20018;-72
2023/04/22 09:59:30;;;;;;;5.55;2.90;;;;;;;;;;5005365;28;20037;-72
2023/04/22 10:02:03;;;;;;;3.78;2.80;;;;;;;;;;4995277;28;20018;-73
2023/04/22 10:04:29;;;;;;;4.93;3.37;;;;;;;;;;4996624;28;20884;-73
2023/04/22 10:06:56;;;;;;;3.30;3.00;;;;;;;;;;5003629;28;21540;-72
2023/04/22 10:09:22;;;;;;;5.65;3.20;;;;;;;;;;5002623;28;20030;-71
2023/04/22 10:11:50;;;;;;;8.65;3.70;;;;;;;;;;5003922;28;20604;-72
2023/04/22 10:14:16;;;;;;;3.65;2.78;;;;;;;;;;5000223;28;20121;-71
2023/04/22 10:16:43;;;;;;;12.57;3.10;;;;;;;;;;4990376;28;20109;-71
2023/04/22 10:19:13;;;;;;;5.50;2.92;;;23.40;99.90;;;;;;4994751;28;20033;-72
2023/04/22 10:21:41;;;;;;;5.70;2.90;;;22.00;99.90;;;;;;5003504;28;20209;-72
2023/04/22 10:24:15;;;;;;;4.38;2.75;;;22.00;99.90;;;;;;5000647;28;20080;-72
2023/04/22 10:26:53;;;;;;;3.35;2.53;;;22.00;99.90;;;;;;5009662;28;20030;-72
2023/04/22 10:29:20;;;;;;;3.33;2.20;;;22.20;99.90;;;;;;5007431;28;20048;-72
2023/04/22 10:32:02;;;;;;;4.57;2.40;;;22.30;99.40;;;;;;4995281;28;20038;-72
2023/04/22 10:34:32;;;;;;;3.13;2.20;;;22.30;98.60;;;;;;5000194;28;20117;-72
2023/04/22 10:37:06;;;;;;;4.15;2.17;;;22.40;99.90;;;;;;5002935;28;20030;-71
2023/04/22 10:39:32;;;;;;;3.17;2.00;;;22.40;99.90;;;;;;5003044;28;20548;-72
2023/04/22 10:42:10;;;;;;;2.65;2.10;;;22.20;95.20;;;;;;4998148;28;20026;-70
2023/04/22 10:44:53;;;;;;;4.00;2.10;;;22.20;95.90;;;;;;5005186;28;20080;-71
2023/04/22 10:47:29;;;;;;;7.57;2.13;;;22.20;94.90;;;;;;5000540;28;20038;-72
2023/04/22 10:50:09;;;;;;;5.22;1.98;;;22.30;95.80;;;;;;5003293;28;20026;-72
2023/04/22 10:52:35;;;;;;;3.78;1.75;;;22.40;93.90;;;;;;4998559;28;20129;-72
2023/04/22 10:55:01;;;;;;;8.57;2.10;;;22.40;93.60;;;;;;5002418;28;20160;-72
2023/04/22 10:57:36;;;;;;;4.22;1.90;;;22.50;92.20;;;;;;5009069;28;20403;-72
2023/04/22 11:00:22;;;;;;;4.10;1.70;;;22.60;91.90;;;;;;4995334;28;20042;-71
2023/04/22 11:03:09;;;;;;;4.90;2.00;;;22.70;90.20;;;;;;4997835;28;20030;-73
2023/04/22 11:05:36;;;;;;;2.35;1.60;;;22.70;90.60;;;;;;5002761;28;20045;-72
2023/04/22 11:08:04;;;;;;;3.00;1.70;;;22.70;90.60;;;;;;5000782;28;20595;-73
2023/04/22 11:10:36;;;;;;;5.10;1.65;;;22.80;91.70;;;;;;5001526;28;20545;-72
2023/04/22 11:13:02;;;;;;;2.70;1.45;;;22.70;90.00;;;;;;4996827;28;20041;-72
2023/04/22 11:15:30;;;;;;;1.75;1.50;;;22.70;84.80;;;;;;5000569;28;20389;-72
2023/04/22 11:17:56;;;;;;;3.05;2.00;;;22.60;85.50;;;;;;4998396;28;20030;-72
2023/04/22 11:20:22;;;;;;;2.72;1.60;;;22.70;87.70;;;;;;5000158;28;20657;-72
2023/04/22 11:22:50;;;;;;;2.67;1.48;;;22.80;87.00;;;;;;5005452;28;20392;-72
2023/04/22 11:25:16;;;;;;;2.42;1.67;;;22.80;83.60;;;;;;5001826;28;20116;-72
2023/04/22 11:27:43;;;;;;;6.15;1.70;;;22.70;84.60;;;;;;4997162;28;20105;-72
2023/04/22 11:30:11;;;;;;;1.75;1.45;;;22.60;82.60;;;;;;5006165;28;20030;-72
2023/04/22 11:32:58;;;;;;;2.98;1.69;;;22.60;87.30;;;;;;4980662;28;10002321;-72
2023/04/22 11:35:28;;;;;;;3.40;1.83;;;22.40;86.80;;;;;;4973555;28;22325;-72
2023/04/22 11:37:59;;;;;;;2.08;1.67;;;22.40;87.20;;;;;;4975246;28;20111;-73
2023/04/22 11:40:30;;;;;;;2.80;1.67;;;22.30;88.90;;;;;;4977117;28;20527;-73
2023/04/22 11:42:57;;;;;;;2.85;1.75;;;;;;;;;;4967808;28;20031;-74
2023/04/22 11:45:24;;;;;;;2.25;1.67;;;22.40;90.10;;;;;;4968907;28;20049;-73
2023/04/22 11:47:51;;;;;;;4.90;1.70;;;22.60;87.70;;;;;;4966367;28;20126;-72
2023/04/22 11:50:21;;;;;;;2.08;1.67;;;22.70;89.90;;;;;;4968667;28;20586;-72
2023/04/22 11:52:57;;;;;;;3.42;1.52;;;22.80;85.00;;;;;;4976402;28;20548;-72
2023/04/22 11:55:24;;;;;;;2.90;1.50;;;22.90;82.70;;;;;;4969228;28;20066;-72
2023/04/22 11:57:55;;;;;;;1.83;1.50;;;22.90;80.70;;;;;;4966726;28;20034;-72
2023/04/22 12:00:23;;;;;;;2.45;1.40;;;22.90;82.40;;;;;;4973401;28;20510;-72
2023/04/22 12:03:11;;;;;;;1.33;1.15;;;23.00;80.60;;;;;;4970939;28;20600;-72
2023/04/22 12:05:46;;;;;;;1.67;1.13;;;23.20;81.60;;;;;;4974913;28;20046;-72
2023/04/22 12:08:17;;;;;;;2.00;1.00;;;23.40;80.50;;;;;;5000143;28;20230;-72
2023/04/22 12:10:50;;;;;;;2.78;1.20;;;23.50;77.60;;;;;;4996051;28;20121;-73
2023/04/22 12:13:25;;;;;;;1.90;0.95;;;23.50;75.30;;;;;;4994596;28;21020;-73
2023/04/22 12:15:58;;;;;;;2.15;1.20;;;23.40;76.00;;;;;;5004592;28;20389;-73
2023/04/22 12:18:36;;;;;;;3.55;0.90;;;23.10;74.90;;;;;;5005256;28;20046;-73
2023/04/22 12:21:08;;;;;;;0.90;0.85;;;23.00;73.90;;;;;;5002567;28;20029;-73
2023/04/22 12:23:48;;;;;;;2.17;0.90;;;23.00;71.90;;;;;;5005832;28;20045;-73
2023/04/22 12:26:16;;;;;;;1.40;0.90;;;23.10;73.90;;;;;;5002968;28;20506;-72
2023/04/22 12:28:42;;;;;;;1.48;1.05;;;23.40;79.00;;;;;;5003787;28;20284;-73
2023/04/22 12:31:09;;;;;;;1.60;1.10;;;23.50;72.20;;;;;;5001158;28;20749;-73
2023/04/22 12:33:35;;;;;;;1.13;0.70;;;23.60;68.40;;;;;;5004294;28;20026;-73
2023/04/22 12:36:01;;;;;;;1.30;0.90;;;23.70;69.80;;;;;;5003040;28;20030;-72
2023/04/22 12:38:27;;;;;;;2.70;1.10;;;23.80;71.50;;;;;;5007025;28;20619;-72
2023/04/22 12:40:53;;;;;;;1.25;1.00;;;23.90;71.30;;;;;;4998569;28;20718;-72
2023/04/22 12:43:19;;;;;;;1.92;1.10;;;23.90;68.20;;;;;;5002506;28;20034;-72
2023/04/22 12:45:45;;;;;;;1.10;0.90;;;24.00;71.50;;;;;;5001609;28;20870;-72
2023/04/22 12:48:11;;;;;;;1.98;1.10;;;24.00;69.40;;;;;;5006421;28;20309;-73
2023/04/22 12:50:36;;;;;;;1.75;1.10;;;24.00;67.40;;;;;;5002619;28;20045;-72
2023/04/22 12:53:02;;;;;;;3.00;1.10;;;23.90;67.40;;;;;;4996175;28;20564;-72
2023/04/22 12:55:28;;;;;;;3.90;1.27;;;23.70;68.30;;;;;;5000348;28;20029;-72